メインページ
METAR-TAF:

METAR-TAF

空港 :

カトマンズ, ネパール

トリブバン国際空港

緯度: 27-42N, 経度: 085-22E, 海抜: 1337m

現時点の気象観測

当レポートは27分前の00:50(UTC)に作成
の風 3kt
気温 20°C
湿度 83%
気圧 1015 hPa
視程: 5000m
高度1500ftの雲はほとんどない

METAR: VNKT 230050Z 10003KT 5000 BR FEW015 20/17 Q1015 NOSIG

時間: 07:02 (01:17 UTC)

予報

当レポートは2時間17分前の23:00(UTC)に作成
予報は23日の 00時(UTC)から 23日の 24時(UTC)まで有効
の風 kt
視程: 3000m
高度1500ftの雲はほとんどない
高度3000ftの雲は散在している
確率 40%
23日の 00時(UTC)から 23日の 03時(UTC)まで
視程: 2000m
高度1000ftの雲はほとんどない
高度10000ftの千切れ雲あり
23日の 04時(UTC)から 23日の 05時(UTC)まで徐々に
南西の風 5kt
視程: 5000m
高度2000ftの雲はほとんどない
煙霧
23日の 07時(UTC)から 23日の 08時(UTC)まで徐々に
西/南西の風 8kt
視程: 8000m
高度2000ftの雲はほとんどない
高度3000ftの雲は散在している
確率 40%
23日の 08時(UTC)から 23日の 14時(UTC)まで
変向風 12kt
視程: 4000m
高度2500ftの雲はほとんどない, 積乱雲.
高度10000ftの千切れ雲あり
激しい雷雨, 小雨
23日の 14時(UTC)から 23日の 15時(UTC)まで徐々に
の風 kt
視程: 6000m
高度2500ftの雲はほとんどない

TAF: VNKT 222300Z 2300/2324 00000KT 3000 BR FEW015 SCT030 PROB40 2300/2303 2000 BR FEW010 BKN100 BECMG 2304/2305 23005KT 5000 HZ FEW020 BECMG 2307/2308 24008KT 8000 FEW020 SCT030 PROB40 2308/2314 VRB12KT 4000 -TSRA FEW025CB BKN100 BECMG 2314/2315 00000KT 6000 FEW025

4,000以上の空港の気象観測と天気予報(METAR報とTAF報)

利用可能な観測所は地図上に黄色い丸と赤い丸で示す。

丸の上にカーソルを重ねると観測所名を参照できる。

次にクリックすると気象観測と天気予報を参照できる。

マップの切り替え:黒色「×」印の緑ボタンをクリックして拡大、「-」印の緑ボタンをクリックして縮小、緑色の三角印をクリックして隣りの地図に切り替え


METAR-TAF: